sensor_id;sensor_type;location;lat;lon;timestamp;temperature;humidity
7028;DHT22;3555;53.248;10.336;2023-04-03T00:00:32;4.20;1.00
7028;DHT22;3555;53.248;10.336;2023-04-03T00:02:59;4.20;1.00
7028;DHT22;3555;53.248;10.336;2023-04-03T00:05:26;4.20;1.00
7028;DHT22;3555;53.248;10.336;2023-04-03T00:07:53;4.20;1.00
7028;DHT22;3555;53.248;10.336;2023-04-03T00:10:21;4.10;1.00
7028;DHT22;3555;53.248;10.336;2023-04-03T00:12:48;4.10;1.00
7028;DHT22;3555;53.248;10.336;2023-04-03T00:15:15;4.10;1.00
7028;DHT22;3555;53.248;10.336;2023-04-03T00:17:42;4.10;1.00
7028;DHT22;3555;53.248;10.336;2023-04-03T00:20:09;4.10;1.00
7028;DHT22;3555;53.248;10.336;2023-04-03T00:22:37;4.00;1.00
7028;DHT22;3555;53.248;10.336;2023-04-03T00:25:04;4.00;1.00
7028;DHT22;3555;53.248;10.336;2023-04-03T00:27:32;4.00;1.00
7028;DHT22;3555;53.248;10.336;2023-04-03T00:29:59;3.90;1.00
7028;DHT22;3555;53.248;10.336;2023-04-03T00:32:26;3.80;1.00
7028;DHT22;3555;53.248;10.336;2023-04-03T00:34:53;3.70;1.00
7028;DHT22;3555;53.248;10.336;2023-04-03T00:37:20;3.70;1.00
7028;DHT22;3555;53.248;10.336;2023-04-03T00:39:47;3.60;17.50
7028;DHT22;3555;53.248;10.336;2023-04-03T00:42:14;3.50;99.90
7028;DHT22;3555;53.248;10.336;2023-04-03T00:48:04;3.50;99.90
7028;DHT22;3555;53.248;10.336;2023-04-03T00:50:33;3.50;99.90
7028;DHT22;3555;53.248;10.336;2023-04-03T00:53:02;3.50;99.90
7028;DHT22;3555;53.248;10.336;2023-04-03T00:55:30;3.50;99.90
7028;DHT22;3555;53.248;10.336;2023-04-03T00:57:58;3.30;99.90
7028;DHT22;3555;53.248;10.336;2023-04-03T01:00:27;3.40;99.90
7028;DHT22;3555;53.248;10.336;2023-04-03T01:02:54;3.40;99.90
7028;DHT22;3555;53.248;10.336;2023-04-03T01:05:22;3.40;99.90
7028;DHT22;3555;53.248;10.336;2023-04-03T01:07:50;3.40;99.90
7028;DHT22;3555;53.248;10.336;2023-04-03T01:10:18;3.50;99.90
7028;DHT22;3555;53.248;10.336;2023-04-03T01:12:47;3.60;99.90
7028;DHT22;3555;53.248;10.336;2023-04-03T01:15:17;3.50;99.90
7028;DHT22;3555;53.248;10.336;2023-04-03T01:17:46;3.50;99.90
7028;DHT22;3555;53.248;10.336;2023-04-03T01:23:56;3.50;99.90
7028;DHT22;3555;53.248;10.336;2023-04-03T01:26:25;3.50;99.90
7028;DHT22;3555;53.248;10.336;2023-04-03T01:28:54;3.50;99.90
7028;DHT22;3555;53.248;10.336;2023-04-03T01:31:24;3.50;99.90
7028;DHT22;3555;53.248;10.336;2023-04-03T01:33:53;3.50;99.90
7028;DHT22;3555;53.248;10.336;2023-04-03T01:36:22;3.50;99.90
7028;DHT22;3555;53.248;10.336;2023-04-03T01:38:51;3.50;99.90
7028;DHT22;3555;53.248;10.336;2023-04-03T01:41:19;3.50;99.90
7028;DHT22;3555;53.248;10.336;2023-04-03T01:43:46;3.40;99.90
7028;DHT22;3555;53.248;10.336;2023-04-03T01:46:13;3.40;99.90
7028;DHT22;3555;53.248;10.336;2023-04-03T01:48:40;3.50;99.90
7028;DHT22;3555;53.248;10.336;2023-04-03T01:51:09;3.50;99.90
7028;DHT22;3555;53.248;10.336;2023-04-03T01:53:36;3.50;99.90
7028;DHT22;3555;53.248;10.336;2023-04-03T01:56:03;3.50;99.90
7028;DHT22;3555;53.248;10.336;2023-04-03T01:58:30;3.50;99.90
7028;DHT22;3555;53.248;10.336;2023-04-03T02:00:57;3.50;99.90
7028;DHT22;3555;53.248;10.336;2023-04-03T02:03:24;3.40;99.90
7028;DHT22;3555;53.248;10.336;2023-04-03T02:05:51;3.40;99.90
7028;DHT22;3555;53.248;10.336;2023-04-03T02:08:20;3.40;99.90
7028;DHT22;3555;53.248;10.336;2023-04-03T02:10:47;3.30;99.90
7028;DHT22;3555;53.248;10.336;2023-04-03T02:13:14;3.30;99.90
7028;DHT22;3555;53.248;10.336;2023-04-03T02:15:41;3.30;99.90
7028;DHT22;3555;53.248;10.336;2023-04-03T02:18:08;3.30;99.90
7028;DHT22;3555;53.248;10.336;2023-04-03T02:20:35;3.30;99.90
7028;DHT22;3555;53.248;10.336;2023-04-03T02:23:02;3.30;99.90
7028;DHT22;3555;53.248;10.336;2023-04-03T02:25:32;3.30;99.90
7028;DHT22;3555;53.248;10.336;2023-04-03T02:27:59;3.40;99.90
7028;DHT22;3555;53.248;10.336;2023-04-03T02:30:26;3.30;99.90
7028;DHT22;3555;53.248;10.336;2023-04-03T02:32:53;3.30;99.90
7028;DHT22;3555;53.248;10.336;2023-04-03T02:35:20;3.30;99.90
7028;DHT22;3555;53.248;10.336;2023-04-03T02:37:47;3.30;99.90
7028;DHT22;3555;53.248;10.336;2023-04-03T02:40:14;3.30;99.90
7028;DHT22;3555;53.248;10.336;2023-04-03T02:42:42;3.20;99.90
7028;DHT22;3555;53.248;10.336;2023-04-03T02:45:10;3.30;99.90
7028;DHT22;3555;53.248;10.336;2023-04-03T02:47:36;3.10;99.90
7028;DHT22;3555;53.248;10.336;2023-04-03T02:50:04;3.00;99.90
7028;DHT22;3555;53.248;10.336;2023-04-03T02:52:31;3.00;1.00
7028;DHT22;3555;53.248;10.336;2023-04-03T02:54:58;2.90;1.00
7028;DHT22;3555;53.248;10.336;2023-04-03T02:57:25;2.90;1.00
7028;DHT22;3555;53.248;10.336;2023-04-03T02:59:53;2.70;1.00
7028;DHT22;3555;53.248;10.336;2023-04-03T03:02:20;2.70;1.00
7028;DHT22;3555;53.248;10.336;2023-04-03T03:04:47;2.70;1.00
7028;DHT22;3555;53.248;10.336;2023-04-03T03:07:14;2.50;1.00
7028;DHT22;3555;53.248;10.336;2023-04-03T03:09:41;2.50;13.70
7028;DHT22;3555;53.248;10.336;2023-04-03T03:12:08;2.50;12.50
7028;DHT22;3555;53.248;10.336;2023-04-03T03:14:35;2.60;99.90
7028;DHT22;3555;53.248;10.336;2023-04-03T03:17:03;2.50;6.70
7028;DHT22;3555;53.248;10.336;2023-04-03T03:19:30;2.50;18.90
7028;DHT22;3555;53.248;10.336;2023-04-03T03:21:57;2.60;99.90
7028;DHT22;3555;53.248;10.336;2023-04-03T03:24:23;2.60;1.00
7028;DHT22;3555;53.248;10.336;2023-04-03T03:26:50;2.50;1.00
7028;DHT22;3555;53.248;10.336;2023-04-03T03:29:17;2.60;1.00
7028;DHT22;3555;53.248;10.336;2023-04-03T03:31:44;2.50;1.00
7028;DHT22;3555;53.248;10.336;2023-04-03T03:34:13;2.50;42.40
7028;DHT22;3555;53.248;10.336;2023-04-03T03:36:40;2.50;97.60
7028;DHT22;3555;53.248;10.336;2023-04-03T03:39:07;2.50;1.00
7028;DHT22;3555;53.248;10.336;2023-04-03T03:41:34;2.60;1.00
7028;DHT22;3555;53.248;10.336;2023-04-03T03:44:01;2.70;1.00
7028;DHT22;3555;53.248;10.336;2023-04-03T03:46:28;2.60;1.00
7028;DHT22;3555;53.248;10.336;2023-04-03T03:48:55;2.60;1.00
7028;DHT22;3555;53.248;10.336;2023-04-03T03:51:23;2.60;1.00
7028;DHT22;3555;53.248;10.336;2023-04-03T03:53:50;2.60;1.00
7028;DHT22;3555;53.248;10.336;2023-04-03T03:56:17;2.60;1.00
7028;DHT22;3555;53.248;10.336;2023-04-03T03:58:44;2.60;1.00
7028;DHT22;3555;53.248;10.336;2023-04-03T04:01:11;2.60;1.00
7028;DHT22;3555;53.248;10.336;2023-04-03T04:03:38;2.60;1.00
7028;DHT22;3555;53.248;10.336;2023-04-03T04:06:05;2.60;1.00
7028;DHT22;3555;53.248;10.336;2023-04-03T04:08:33;2.60;1.00
7028;DHT22;3555;53.248;10.336;2023-04-03T04:11:00;2.60;1.00
7028;DHT22;3555;53.248;10.336;2023-04-03T04:13:27;2.60;1.00
7028;DHT22;3555;53.248;10.336;2023-04-03T04:15:54;2.60;1.00
7028;DHT22;3555;53.248;10.336;2023-04-03T04:18:21;2.60;1.00
7028;DHT22;3555;53.248;10.336;2023-04-03T04:20:48;2.60;1.00
7028;DHT22;3555;53.248;10.336;2023-04-03T04:23:15;2.50;1.00
7028;DHT22;3555;53.248;10.336;2023-04-03T04:25:45;2.60;1.00
7028;DHT22;3555;53.248;10.336;2023-04-03T04:28:12;2.50;1.00
7028;DHT22;3555;53.248;10.336;2023-04-03T04:30:39;2.50;1.00
7028;DHT22;3555;53.248;10.336;2023-04-03T04:33:06;2.50;1.00
7028;DHT22;3555;53.248;10.336;2023-04-03T04:35:33;2.50;1.00
7028;DHT22;3555;53.248;10.336;2023-04-03T04:38:00;2.40;1.00
7028;DHT22;3555;53.248;10.336;2023-04-03T04:40:28;2.40;1.00
7028;DHT22;3555;53.248;10.336;2023-04-03T04:42:56;2.40;1.00
7028;DHT22;3555;53.248;10.336;2023-04-03T04:45:23;2.40;1.00
7028;DHT22;3555;53.248;10.336;2023-04-03T04:47:50;2.50;1.00
7028;DHT22;3555;53.248;10.336;2023-04-03T04:50:18;2.40;1.00
7028;DHT22;3555;53.248;10.336;2023-04-03T04:52:45;2.40;1.00
7028;DHT22;3555;53.248;10.336;2023-04-03T04:55:12;2.40;1.00
7028;DHT22;3555;53.248;10.336;2023-04-03T04:57:39;2.40;1.00
7028;DHT22;3555;53.248;10.336;2023-04-03T05:00:08;2.40;1.00
7028;DHT22;3555;53.248;10.336;2023-04-03T05:02:35;2.40;1.00
7028;DHT22;3555;53.248;10.336;2023-04-03T05:05:03;2.40;1.00
7028;DHT22;3555;53.248;10.336;2023-04-03T05:07:30;3.10;1.00
7028;DHT22;3555;53.248;10.336;2023-04-03T05:09:56;2.40;1.00
7028;DHT22;3555;53.248;10.336;2023-04-03T05:12:23;2.40;1.00
7028;DHT22;3555;53.248;10.336;2023-04-03T05:14:50;2.40;1.00
7028;DHT22;3555;53.248;10.336;2023-04-03T05:17:19;2.50;1.00
7028;DHT22;3555;53.248;10.336;2023-04-03T05:19:46;2.40;1.00
7028;DHT22;3555;53.248;10.336;2023-04-03T05:22:12;2.40;1.00
7028;DHT22;3555;53.248;10.336;2023-04-03T05:24:40;2.40;1.00
7028;DHT22;3555;53.248;10.336;2023-04-03T05:27:07;2.40;1.00
7028;DHT22;3555;53.248;10.336;2023-04-03T05:29:34;2.50;1.00
7028;DHT22;3555;53.248;10.336;2023-04-03T05:32:01;2.50;1.00
7028;DHT22;3555;53.248;10.336;2023-04-03T05:34:29;2.40;1.00
7028;DHT22;3555;53.248;10.336;2023-04-03T05:36:56;2.50;1.00
7028;DHT22;3555;53.248;10.336;2023-04-03T05:39:23;2.40;1.00
7028;DHT22;3555;53.248;10.336;2023-04-03T05:41:51;2.40;1.00
7028;DHT22;3555;53.248;10.336;2023-04-03T05:44:17;2.50;31.80
7028;DHT22;3555;53.248;10.336;2023-04-03T05:48:37;2.70;1.00
7028;DHT22;3555;53.248;10.336;2023-04-03T05:51:04;2.80;99.90
7028;DHT22;3555;53.248;10.336;2023-04-03T05:53:34;3.00;99.90
7028;DHT22;3555;53.248;10.336;2023-04-03T05:56:02;3.20;1.00
7028;DHT22;3555;53.248;10.336;2023-04-03T05:58:29;3.40;1.00
7028;DHT22;3555;53.248;10.336;2023-04-03T06:00:55;3.80;99.90
7028;DHT22;3555;53.248;10.336;2023-04-03T06:03:22;4.00;99.90
7028;DHT22;3555;53.248;10.336;2023-04-03T06:05:51;4.20;1.00
7028;DHT22;3555;53.248;10.336;2023-04-03T06:08:18;4.50;1.00
7028;DHT22;3555;53.248;10.336;2023-04-03T06:10:45;4.80;1.00
7028;DHT22;3555;53.248;10.336;2023-04-03T06:13:13;5.10;99.90
7028;DHT22;3555;53.248;10.336;2023-04-03T06:15:40;5.30;20.30
7028;DHT22;3555;53.248;10.336;2023-04-03T06:18:07;5.40;99.90
7028;DHT22;3555;53.248;10.336;2023-04-03T06:20:35;5.60;1.00
7028;DHT22;3555;53.248;10.336;2023-04-03T06:23:03;5.70;1.00
7028;DHT22;3555;53.248;10.336;2023-04-03T06:25:30;5.80;1.00
7028;DHT22;3555;53.248;10.336;2023-04-03T06:27:57;6.00;1.00
7028;DHT22;3555;53.248;10.336;2023-04-03T06:30:24;6.40;1.00
7028;DHT22;3555;53.248;10.336;2023-04-03T06:32:51;6.50;1.00
7028;DHT22;3555;53.248;10.336;2023-04-03T06:35:18;6.70;1.00
7028;DHT22;3555;53.248;10.336;2023-04-03T06:37:46;6.90;1.00
7028;DHT22;3555;53.248;10.336;2023-04-03T06:40:19;7.10;1.00
7028;DHT22;3555;53.248;10.336;2023-04-03T06:42:47;7.30;99.90
7028;DHT22;3555;53.248;10.336;2023-04-03T06:45:14;7.50;1.00
7028;DHT22;3555;53.248;10.336;2023-04-03T06:47:41;7.50;1.00
7028;DHT22;3555;53.248;10.336;2023-04-03T06:50:10;7.80;99.90
7028;DHT22;3555;53.248;10.336;2023-04-03T06:52:39;8.10;99.90
7028;DHT22;3555;53.248;10.336;2023-04-03T06:55:07;8.30;99.90
7028;DHT22;3555;53.248;10.336;2023-04-03T06:57:36;8.50;99.90
7028;DHT22;3555;53.248;10.336;2023-04-03T07:00:05;8.80;99.90
7028;DHT22;3555;53.248;10.336;2023-04-03T07:02:32;9.00;99.90
7028;DHT22;3555;53.248;10.336;2023-04-03T07:05:00;9.20;99.90
7028;DHT22;3555;53.248;10.336;2023-04-03T07:07:26;9.50;99.90
7028;DHT22;3555;53.248;10.336;2023-04-03T07:09:53;9.40;99.90
7028;DHT22;3555;53.248;10.336;2023-04-03T07:12:20;9.40;96.80
7028;DHT22;3555;53.248;10.336;2023-04-03T07:14:49;9.60;99.90
7028;DHT22;3555;53.248;10.336;2023-04-03T07:17:16;9.80;65.70
7028;DHT22;3555;53.248;10.336;2023-04-03T07:19:42;10.10;99.90
7028;DHT22;3555;53.248;10.336;2023-04-03T07:22:09;10.00;21.50
7028;DHT22;3555;53.248;10.336;2023-04-03T07:24:37;10.20;26.40
7028;DHT22;3555;53.248;10.336;2023-04-03T07:27:04;10.40;13.30
7028;DHT22;3555;53.248;10.336;2023-04-03T07:29:34;10.30;1.00
7028;DHT22;3555;53.248;10.336;2023-04-03T07:32:02;10.50;1.00
7028;DHT22;3555;53.248;10.336;2023-04-03T07:34:30;10.60;1.00
7028;DHT22;3555;53.248;10.336;2023-04-03T07:36:58;10.50;1.00
7028;DHT22;3555;53.248;10.336;2023-04-03T07:39:26;10.00;1.00
7028;DHT22;3555;53.248;10.336;2023-04-03T07:41:53;10.00;1.00
7028;DHT22;3555;53.248;10.336;2023-04-03T07:44:21;9.80;1.00
7028;DHT22;3555;53.248;10.336;2023-04-03T07:46:48;9.90;1.00
7028;DHT22;3555;53.248;10.336;2023-04-03T07:49:17;10.00;1.00
7028;DHT22;3555;53.248;10.336;2023-04-03T07:51:44;9.70;1.00
7028;DHT22;3555;53.248;10.336;2023-04-03T07:54:12;9.80;1.00
7028;DHT22;3555;53.248;10.336;2023-04-03T07:56:39;9.90;1.00
7028;DHT22;3555;53.248;10.336;2023-04-03T07:59:05;9.70;1.00
7028;DHT22;3555;53.248;10.336;2023-04-03T08:01:33;9.50;1.00
7028;DHT22;3555;53.248;10.336;2023-04-03T08:04:00;9.30;1.00
7028;DHT22;3555;53.248;10.336;2023-04-03T08:06:28;9.30;1.00
7028;DHT22;3555;53.248;10.336;2023-04-03T08:08:57;9.20;1.00
7028;DHT22;3555;53.248;10.336;2023-04-03T08:11:24;9.00;1.00
7028;DHT22;3555;53.248;10.336;2023-04-03T08:13:52;9.00;1.00
7028;DHT22;3555;53.248;10.336;2023-04-03T08:16:21;9.10;1.00
7028;DHT22;3555;53.248;10.336;2023-04-03T08:18:49;9.30;1.00
7028;DHT22;3555;53.248;10.336;2023-04-03T08:21:16;9.20;1.00
7028;DHT22;3555;53.248;10.336;2023-04-03T08:23:48;9.40;1.00
7028;DHT22;3555;53.248;10.336;2023-04-03T08:26:17;9.30;1.00
7028;DHT22;3555;53.248;10.336;2023-04-03T08:28:44;9.60;1.00
7028;DHT22;3555;53.248;10.336;2023-04-03T08:31:15;9.60;1.00
7028;DHT22;3555;53.248;10.336;2023-04-03T08:33:42;9.90;1.00
7028;DHT22;3555;53.248;10.336;2023-04-03T08:36:17;10.40;1.00
7028;DHT22;3555;53.248;10.336;2023-04-03T08:38:46;10.60;1.00
7028;DHT22;3555;53.248;10.336;2023-04-03T08:41:16;10.50;1.00
7028;DHT22;3555;53.248;10.336;2023-04-03T08:43:57;10.70;1.00
7028;DHT22;3555;53.248;10.336;2023-04-03T08:46:32;10.70;1.00
7028;DHT22;3555;53.248;10.336;2023-04-03T08:49:02;10.80;1.00
7028;DHT22;3555;53.248;10.336;2023-04-03T08:51:31;10.70;1.00
7028;DHT22;3555;53.248;10.336;2023-04-03T08:54:03;11.00;1.00
7028;DHT22;3555;53.248;10.336;2023-04-03T08:56:32;11.20;1.00
7028;DHT22;3555;53.248;10.336;2023-04-03T08:59:01;11.30;1.00
7028;DHT22;3555;53.248;10.336;2023-04-03T09:01:35;11.00;1.00
7028;DHT22;3555;53.248;10.336;2023-04-03T09:04:09;10.90;1.00
7028;DHT22;3555;53.248;10.336;2023-04-03T09:06:38;10.90;1.00
7028;DHT22;3555;53.248;10.336;2023-04-03T09:09:13;10.60;1.00
7028;DHT22;3555;53.248;10.336;2023-04-03T09:11:49;10.90;1.00
7028;DHT22;3555;53.248;10.336;2023-04-03T09:14:24;10.80;1.00
7028;DHT22;3555;53.248;10.336;2023-04-03T09:16:55;11.00;1.00
7028;DHT22;3555;53.248;10.336;2023-04-03T09:19:31;11.20;1.00
7028;DHT22;3555;53.248;10.336;2023-04-03T09:22:09;11.60;1.00
7028;DHT22;3555;53.248;10.336;2023-04-03T09:24:41;11.70;1.00
7028;DHT22;3555;53.248;10.336;2023-04-03T09:27:10;11.50;1.00
7028;DHT22;3555;53.248;10.336;2023-04-03T09:29:40;11.70;1.00
7028;DHT22;3555;53.248;10.336;2023-04-03T09:32:19;11.60;1.00
7028;DHT22;3555;53.248;10.336;2023-04-03T09:34:48;11.10;1.00
7028;DHT22;3555;53.248;10.336;2023-04-03T09:37:35;10.90;1.00
7028;DHT22;3555;53.248;10.336;2023-04-03T09:40:05;11.10;1.00
7028;DHT22;3555;53.248;10.336;2023-04-03T09:42:45;11.40;1.00
7028;DHT22;3555;53.248;10.336;2023-04-03T09:45:23;11.70;1.00
7028;DHT22;3555;53.248;10.336;2023-04-03T09:48:04;11.70;1.00
7028;DHT22;3555;53.248;10.336;2023-04-03T09:50:32;11.70;1.00
7028;DHT22;3555;53.248;10.336;2023-04-03T09:53:05;11.40;1.00
7028;DHT22;3555;53.248;10.336;2023-04-03T09:55:42;11.60;1.00
7028;DHT22;3555;53.248;10.336;2023-04-03T09:58:25;11.60;1.00
7028;DHT22;3555;53.248;10.336;2023-04-03T10:00:57;11.40;1.00
7028;DHT22;3555;53.248;10.336;2023-04-03T10:03:28;11.20;1.00
7028;DHT22;3555;53.248;10.336;2023-04-03T10:05:55;10.80;1.00
7028;DHT22;3555;53.248;10.336;2023-04-03T10:08:26;11.00;1.00
7028;DHT22;3555;53.248;10.336;2023-04-03T10:11:12;10.80;1.00
7028;DHT22;3555;53.248;10.336;2023-04-03T10:13:54;10.60;1.00
7028;DHT22;3555;53.248;10.336;2023-04-03T10:16:26;10.40;1.00
7028;DHT22;3555;53.248;10.336;2023-04-03T10:19:09;10.80;1.00
7028;DHT22;3555;53.248;10.336;2023-04-03T10:21:45;10.80;1.00
7028;DHT22;3555;53.248;10.336;2023-04-03T10:24:17;10.50;1.00
7028;DHT22;3555;53.248;10.336;2023-04-03T10:26:56;10.50;1.00
7028;DHT22;3555;53.248;10.336;2023-04-03T10:29:36;10.30;1.00
7028;DHT22;3555;53.248;10.336;2023-04-03T10:32:19;10.40;1.00
7028;DHT22;3555;53.248;10.336;2023-04-03T10:34:55;10.50;1.00
7028;DHT22;3555;53.248;10.336;2023-04-03T10:37:26;10.60;1.00
7028;DHT22;3555;53.248;10.336;2023-04-03T10:39:58;10.10;1.00
7028;DHT22;3555;53.248;10.336;2023-04-03T10:42:31;10.10;1.00
7028;DHT22;3555;53.248;10.336;2023-04-03T10:45:14;10.10;1.00
7028;DHT22;3555;53.248;10.336;2023-04-03T10:47:51;9.80;1.00
7028;DHT22;3555;53.248;10.336;2023-04-03T10:50:29;9.90;1.00
7028;DHT22;3555;53.248;10.336;2023-04-03T10:53:02;9.90;1.00
7028;DHT22;3555;53.248;10.336;2023-04-03T10:55:35;9.90;1.00
7028;DHT22;3555;53.248;10.336;2023-04-03T10:58:06;10.10;1.00
7028;DHT22;3555;53.248;10.336;2023-04-03T11:00:39;10.00;1.00
7028;DHT22;3555;53.248;10.336;2023-04-03T11:03:13;10.20;1.00
7028;DHT22;3555;53.248;10.336;2023-04-03T11:05:43;10.20;1.00
7028;DHT22;3555;53.248;10.336;2023-04-03T11:08:17;10.00;1.00
7028;DHT22;3555;53.248;10.336;2023-04-03T11:10:49;10.00;1.00
7028;DHT22;3555;53.248;10.336;2023-04-03T11:13:22;10.10;1.00
7028;DHT22;3555;53.248;10.336;2023-04-03T11:15:53;9.90;1.00
7028;DHT22;3555;53.248;10.336;2023-04-03T11:18:25;9.60;1.00
7028;DHT22;3555;53.248;10.336;2023-04-03T11:21:00;9.70;1.00
7028;DHT22;3555;53.248;10.336;2023-04-03T11:23:30;9.70;1.00
7028;DHT22;3555;53.248;10.336;2023-04-03T11:26:07;9.70;1.00
7028;DHT22;3555;53.248;10.336;2023-04-03T11:28:36;9.80;1.00
7028;DHT22;3555;53.248;10.336;2023-04-03T11:31:12;9.90;1.00
7028;DHT22;3555;53.248;10.336;2023-04-03T11:33:49;9.30;1.00
7028;DHT22;3555;53.248;10.336;2023-04-03T11:36:22;9.40;1.00
7028;DHT22;3555;53.248;10.336;2023-04-03T11:38:53;9.60;1.00
7028;DHT22;3555;53.248;10.336;2023-04-03T11:41:26;9.60;1.00
7028;DHT22;3555;53.248;10.336;2023-04-03T11:44:00;9.90;1.00
7028;DHT22;3555;53.248;10.336;2023-04-03T11:46:52;10.00;1.00
7028;DHT22;3555;53.248;10.336;2023-04-03T11:49:51;10.10;1.00
7028;DHT22;3555;53.248;10.336;2023-04-03T11:55:51;10.40;1.00
7028;DHT22;3555;53.248;10.336;2023-04-03T11:58:19;10.00;1.00
7028;DHT22;3555;53.248;10.336;2023-04-03T12:01:10;9.60;1.00
7028;DHT22;3555;53.248;10.336;2023-04-03T12:03:57;9.40;1.00
7028;DHT22;3555;53.248;10.336;2023-04-03T12:07:08;9.60;1.00
7028;DHT22;3555;53.248;10.336;2023-04-03T12:12:56;8.80;1.00
7028;DHT22;3555;53.248;10.336;2023-04-03T12:15:47;8.80;1.00
7028;DHT22;3555;53.248;10.336;2023-04-03T12:18:41;8.80;1.00
7028;DHT22;3555;53.248;10.336;2023-04-03T12:21:08;9.00;1.00
7028;DHT22;3555;53.248;10.336;2023-04-03T12:23:37;9.20;1.00
7028;DHT22;3555;53.248;10.336;2023-04-03T12:26:23;9.20;1.00
7028;DHT22;3555;53.248;10.336;2023-04-03T12:28:53;9.20;1.00
7028;DHT22;3555;53.248;10.336;2023-04-03T12:31:24;9.40;1.00
7028;DHT22;3555;53.248;10.336;2023-04-03T12:34:09;9.40;1.00
7028;DHT22;3555;53.248;10.336;2023-04-03T12:36:49;9.70;1.00
7028;DHT22;3555;53.248;10.336;2023-04-03T12:39:45;9.80;1.00
7028;DHT22;3555;53.248;10.336;2023-04-03T12:42:37;9.60;1.00
7028;DHT22;3555;53.248;10.336;2023-04-03T12:45:16;9.30;1.00
7028;DHT22;3555;53.248;10.336;2023-04-03T12:47:45;9.20;1.00
7028;DHT22;3555;53.248;10.336;2023-04-03T12:50:23;9.30;1.00
7028;DHT22;3555;53.248;10.336;2023-04-03T12:52:56;9.30;1.00
7028;DHT22;3555;53.248;10.336;2023-04-03T12:55:24;9.20;1.00
7028;DHT22;3555;53.248;10.336;2023-04-03T12:57:52;9.00;1.00
7028;DHT22;3555;53.248;10.336;2023-04-03T13:00:22;8.80;1.00
7028;DHT22;3555;53.248;10.336;2023-04-03T13:02:52;8.70;1.00
7028;DHT22;3555;53.248;10.336;2023-04-03T13:05:22;8.80;1.00
7028;DHT22;3555;53.248;10.336;2023-04-03T13:07:50;8.90;1.00
7028;DHT22;3555;53.248;10.336;2023-04-03T13:10:20;9.00;1.00
7028;DHT22;3555;53.248;10.336;2023-04-03T13:12:49;8.70;1.00
7028;DHT22;3555;53.248;10.336;2023-04-03T13:15:19;8.40;1.00
7028;DHT22;3555;53.248;10.336;2023-04-03T13:17:48;8.30;1.00
7028;DHT22;3555;53.248;10.336;2023-04-03T13:20:23;8.20;1.00
7028;DHT22;3555;53.248;10.336;2023-04-03T13:22:55;8.10;1.00
7028;DHT22;3555;53.248;10.336;2023-04-03T13:25:24;8.10;1.00
7028;DHT22;3555;53.248;10.336;2023-04-03T13:27:52;8.30;1.00
7028;DHT22;3555;53.248;10.336;2023-04-03T13:30:27;8.50;1.00
7028;DHT22;3555;53.248;10.336;2023-04-03T13:32:54;8.80;1.00
7028;DHT22;3555;53.248;10.336;2023-04-03T13:35:32;8.60;1.00
7028;DHT22;3555;53.248;10.336;2023-04-03T13:38:02;8.30;1.00
7028;DHT22;3555;53.248;10.336;2023-04-03T13:40:29;8.10;1.00
7028;DHT22;3555;53.248;10.336;2023-04-03T13:43:02;7.90;1.00
7028;DHT22;3555;53.248;10.336;2023-04-03T13:45:30;8.00;1.00
7028;DHT22;3555;53.248;10.336;2023-04-03T13:48:10;8.00;1.00
7028;DHT22;3555;53.248;10.336;2023-04-03T13:50:54;8.10;1.00
7028;DHT22;3555;53.248;10.336;2023-04-03T13:53:22;8.20;1.00
7028;DHT22;3555;53.248;10.336;2023-04-03T13:56:00;8.20;1.00
7028;DHT22;3555;53.248;10.336;2023-04-03T13:58:31;8.20;1.00
7028;DHT22;3555;53.248;10.336;2023-04-03T14:01:01;8.30;1.00
7028;DHT22;3555;53.248;10.336;2023-04-03T14:03:30;8.30;1.00
7028;DHT22;3555;53.248;10.336;2023-04-03T14:06:00;8.30;1.00
7028;DHT22;3555;53.248;10.336;2023-04-03T14:08:29;8.60;1.00
7028;DHT22;3555;53.248;10.336;2023-04-03T14:10:56;8.70;1.00
7028;DHT22;3555;53.248;10.336;2023-04-03T14:13:23;8.40;1.00
7028;DHT22;3555;53.248;10.336;2023-04-03T14:15:50;8.30;1.00
7028;DHT22;3555;53.248;10.336;2023-04-03T14:18:19;7.90;1.00
7028;DHT22;3555;53.248;10.336;2023-04-03T14:20:47;8.00;1.00
7028;DHT22;3555;53.248;10.336;2023-04-03T14:23:16;8.20;1.00
7028;DHT22;3555;53.248;10.336;2023-04-03T14:25:43;8.10;1.00
7028;DHT22;3555;53.248;10.336;2023-04-03T14:28:16;8.30;1.00
7028;DHT22;3555;53.248;10.336;2023-04-03T14:30:44;8.30;1.00
7028;DHT22;3555;53.248;10.336;2023-04-03T14:33:14;8.30;1.00
7028;DHT22;3555;53.248;10.336;2023-04-03T14:35:42;8.10;1.00
7028;DHT22;3555;53.248;10.336;2023-04-03T14:38:23;8.30;1.00
7028;DHT22;3555;53.248;10.336;2023-04-03T14:40:51;8.30;1.00
7028;DHT22;3555;53.248;10.336;2023-04-03T14:43:18;8.50;1.00
7028;DHT22;3555;53.248;10.336;2023-04-03T14:45:46;8.70;1.00
7028;DHT22;3555;53.248;10.336;2023-04-03T14:48:18;8.60;1.00
7028;DHT22;3555;53.248;10.336;2023-04-03T14:50:46;8.60;1.00
7028;DHT22;3555;53.248;10.336;2023-04-03T14:53:14;8.70;1.00
7028;DHT22;3555;53.248;10.336;2023-04-03T14:55:45;8.40;1.00
7028;DHT22;3555;53.248;10.336;2023-04-03T14:58:14;8.10;1.00
7028;DHT22;3555;53.248;10.336;2023-04-03T15:00:42;8.10;1.00
7028;DHT22;3555;53.248;10.336;2023-04-03T15:03:13;8.20;1.00
7028;DHT22;3555;53.248;10.336;2023-04-03T15:05:41;8.50;1.00
7028;DHT22;3555;53.248;10.336;2023-04-03T15:08:18;8.70;1.00
7028;DHT22;3555;53.248;10.336;2023-04-03T15:10:48;8.50;1.00
7028;DHT22;3555;53.248;10.336;2023-04-03T15:13:15;8.60;1.00
7028;DHT22;3555;53.248;10.336;2023-04-03T15:15:42;8.60;1.00
7028;DHT22;3555;53.248;10.336;2023-04-03T15:18:15;8.70;1.00
7028;DHT22;3555;53.248;10.336;2023-04-03T15:20:43;9.00;1.00
7028;DHT22;3555;53.248;10.336;2023-04-03T15:23:11;8.80;1.00
7028;DHT22;3555;53.248;10.336;2023-04-03T15:25:41;8.90;1.00
7028;DHT22;3555;53.248;10.336;2023-04-03T15:28:16;9.00;1.00
7028;DHT22;3555;53.248;10.336;2023-04-03T15:30:44;9.10;1.00
7028;DHT22;3555;53.248;10.336;2023-04-03T15:33:11;8.90;1.00
7028;DHT22;3555;53.248;10.336;2023-04-03T15:35:38;8.60;1.00
7028;DHT22;3555;53.248;10.336;2023-04-03T15:38:05;8.60;1.00
7028;DHT22;3555;53.248;10.336;2023-04-03T15:40:32;8.40;1.00
7028;DHT22;3555;53.248;10.336;2023-04-03T15:43:00;8.50;1.00
7028;DHT22;3555;53.248;10.336;2023-04-03T15:45:30;8.60;1.00
7028;DHT22;3555;53.248;10.336;2023-04-03T15:47:57;8.40;1.00
7028;DHT22;3555;53.248;10.336;2023-04-03T15:50:24;8.30;1.00
7028;DHT22;3555;53.248;10.336;2023-04-03T15:52:52;8.20;1.00
7028;DHT22;3555;53.248;10.336;2023-04-03T15:55:20;8.10;1.00
7028;DHT22;3555;53.248;10.336;2023-04-03T15:57:47;8.20;1.00
7028;DHT22;3555;53.248;10.336;2023-04-03T16:00:15;8.30;1.00
7028;DHT22;3555;53.248;10.336;2023-04-03T16:02:45;8.30;1.00
7028;DHT22;3555;53.248;10.336;2023-04-03T16:05:13;8.30;1.00
7028;DHT22;3555;53.248;10.336;2023-04-03T16:07:41;8.20;1.00
7028;DHT22;3555;53.248;10.336;2023-04-03T16:10:09;8.30;1.00
7028;DHT22;3555;53.248;10.336;2023-04-03T16:12:37;8.40;1.00
7028;DHT22;3555;53.248;10.336;2023-04-03T16:15:04;7.90;1.00
7028;DHT22;3555;53.248;10.336;2023-04-03T16:17:32;8.00;1.00
7028;DHT22;3555;53.248;10.336;2023-04-03T16:20:01;7.90;1.00
7028;DHT22;3555;53.248;10.336;2023-04-03T16:22:29;7.80;1.00
7028;DHT22;3555;53.248;10.336;2023-04-03T16:24:56;7.70;1.00
7028;DHT22;3555;53.248;10.336;2023-04-03T16:27:23;8.10;1.00
7028;DHT22;3555;53.248;10.336;2023-04-03T16:29:53;8.00;1.00
7028;DHT22;3555;53.248;10.336;2023-04-03T16:32:20;8.00;1.00
7028;DHT22;3555;53.248;10.336;2023-04-03T16:34:47;8.10;1.00
7028;DHT22;3555;53.248;10.336;2023-04-03T16:37:15;8.30;1.00
7028;DHT22;3555;53.248;10.336;2023-04-03T16:39:43;8.30;1.00
7028;DHT22;3555;53.248;10.336;2023-04-03T16:42:10;8.30;1.00
7028;DHT22;3555;53.248;10.336;2023-04-03T16:44:37;8.10;1.00